Pagina principale
METAR-TAF:

METAR-TAF

Aeroporti :

Meiringen, Svizzera

latitudine: 46-44-25N, longitudine: 8-06-36E, altezza: 577 m

Osservazione

Il bollettino è stato emesso 36 minuti fa, alle 17:20 UTC
Vento 3 kt da ovest, variando fra sud/sud-ovest e nord/nord-ovest
Temperature 2°C
Umidità 80%
Pressione 1027 hPa
Visibilità 10 km o più
Poco nuvoloso ad un'altezza di 2000 ft
Nubi sparse ad un'altezza di 5700 ft
Cielo coperto ad un'altezza di 6900 ft
rovesci di pioggia

METAR: LSMM 201720Z AUTO 26003KT 210V340 9999NDV -SHRA FEW020 SCT057 OVC069 02/M01 Q1027 RMK

Ora: 18:56 (17:56 UTC)


TAF: mancante

Osservazioni e previsioni meteorologiche di più di 4000 aeroporti (messaggi METAR e TAF).

Le stazioni disponibili sono rappresentate dai dischi gialli e rossi sulla carta.

Puntare il mouse per vedere il nome della stazione.

Clicca sopra per visualizzare le osservazioni e previsioni meteorologiche.

Per cambiare la mappa : fare clic sui pulsanti verdi con una croce nera per ingrandire, il pulsante verde con un trattino per diminuire, o sulla freccia verde per le mappe adiacenti.


METAR-TAF: